Startpagina
METAR-TAF:

METAR-TAF

Vliegvelden :

P11-b, Nederland

Productieplatform

breedte: 52-21-36N, lengte: 3-20-30E, hoogte: 24 m

Actueel weer

Dit bericht is 16 minuten geleden gemaakt, om 10:55 UTC
Wind 15 kt uit het oostnoordoosten
Temperatuur 16°C
Vochtigheid 82%
Druk 1022 hPa
Zicht 10 km of meer

METAR: EHPG 261055Z AUTO 07015KT 9999 NSC 16/13 Q1022

Tijdstip: 13:11 (11:11 UTC)


TAF: ontbreekt

Waarnemingen en weersverwachtingen van meer dan 4000 vliegvelden (METAR en TAF).

De beschikbare stations zijn de gele en rode punten op de kaart.

Ga met uw muis naar het station om de naam te zien.

Klik dan om waarnemingen en weersverwachtingen te zien.

kaart wijzigen: klik op de groene knoppen met een zwart kruis om in te zoomen, op de groene knop met een streepje om uit te zoomen of op de groene pijlen voor aangrenzende kaarten.


METAR-TAF: